Ontario Center, New York
Current Conditions -  °F | °C
As of 12:54 PM on Thursday 27 Nov 2014 (Local Time) from KROC Reporting Station
Overcast Overcast  
Wind Chill: 24°   Ceiling: 4000
Heat Index: 32°   Visibility: 10mi
Dew Point: 23°   Wind: 10mph
Humidity: 69%   Direction: 300°WNW
Pressure: 30.04"   Gusts: NA
Location:  43.23°N, 77.31°W
Report Text: KROC 271754Z 30009KT 10SM SCT020 BKN040 OVC070 00/M05 A3004 RMK AO2 SLP183 4/001 60001 T00001050 10006 21022 58006
Loading
Personal Weather Stations






























Interactive Weather Map New forecast layout! Learn more

10-Day Weather Forecast

Advertisements
Track Severe Weather on mobile